FranceFixed distance
Luchon Aneto Trail - L'Ultra Lat
6–7 Jul2024
Distance
85km
Finishers
273238 men35 women
Winning time
6:48:30h
Median pace
7.83km/h
Pace distribution
273 finishers · 5.96–12.48 km/h · mean 8.01
Every finisher ran the same 85 km course, so these paces are directly comparable.
Histogram of finisher pace. 273 finishers ranged from 5.96 to 12.48 kilometres per hour, with a mean of 8.01 and a median of 7.83. The busiest band is 7.5 to 8.0 kilometres per hour, with 49 finishers.
Results
Ranks 101–150 of 273
| Rank | Runner | Time | Pace | Cat. | Placing |
|---|---|---|---|---|---|
| 101 | *Léoville | 10:17:11h | 8.26 | M35 | 90th M · 21st M35 |
| 102 | 10:17:17h | 8.26 | M45 | 91st M · 14th M45 | |
| 102 | AC Varades | 10:17:17h | 8.26 | M40 | 91st M · 28th M40 |
| 104 | 10:17:38h | 8.26 | M50 | 93rd M · 5th M50 | |
| 105 | *Herrère | 10:18:17h | 8.25 | M23 | 94th M · 23rd M23 |
| 106 | *Biarritz | 10:18:34h | 8.24 | M45 | 95th M · 15th M45 |
| 107 | 10:23:06h | 8.19 | M35 | 96th M · 22nd M35 | |
| 108 | 10:23:07h | 8.19 | M35 | 97th M · 23rd M35 | |
| 108 | 10:23:07h | 8.19 | M45 | 97th M · 16th M45 | |
| 110 | *Venerque | 10:24:33h | 8.17 | M40 | 99th M · 29th M40 |
| 111 | *Touvois | 10:24:43h | 8.16 | M50 | 100th M · 6th M50 |
| 112 | 10:25:09h | 8.16 | W35 | 12th F · 3rd W35 | |
| 113 | 10:25:11h | 8.16 | M40 | 101st M · 30th M40 | |
| 114 | Arbus Running | 10:25:37h | 8.15 | M40 | 102nd M · 31st M40 |
| 115 | A2 Running | 10:25:59h | 8.15 | M23 | 103rd M · 24th M23 |
| 116 | 10:30:15h | 8.09 | M35 | 104th M · 24th M35 | |
| 117 | *Mondavezan | 10:30:47h | 8.09 | W23 | 13th F · 6th W23 |
| 118 | 10:33:51h | 8.05 | W23 | 14th F · 7th W23 | |
| 119 | *Chaumes-En-Retz | 10:34:12h | 8.04 | M23 | 105th M · 25th M23 |
| 120 | 10:34:22h | 8.04 | M23 | 106th M · 26th M23 | |
| 121 | Asd81 | 10:36:17h | 8.02 | M23 | 107th M · 27th M23 |
| 122 | Courir À Torcé | 10:36:30h | 8.01 | M50 | 108th M · 7th M50 |
| 123 | *Lacanau | 10:38:59h | 7.98 | M45 | 109th M · 17th M45 |
| 124 | les Tritons du Grand C... | 10:39:10h | 7.98 | M40 | 110th M · 32nd M40 |
| 125 | 10:39:13h | 7.98 | W55 | 15th F · 1st W55 | |
| 126 | *Lherm | 10:40:05h | 7.97 | M40 | 111th M · 33rd M40 |
| 127 | Union Club Athlétique | 10:41:07h | 7.96 | M45 | 112th M · 18th M45 |
| 128 | JNM Narbonne | 10:44:20h | 7.92 | M50 | 113th M · 8th M50 |
| 129 | Endurodez | 10:44:22h | 7.92 | M45 | 114th M · 19th M45 |
| 130 | 10:44:52h | 7.91 | M35 | 115th M · 25th M35 | |
| 131 | Courir A Ste Luce | 10:48:25h | 7.87 | M40 | 116th M · 34th M40 |
| 132 | Courir À Sainte Luce | 10:48:26h | 7.87 | M40 | 117th M · 35th M40 |
| 133 | Stade Toulousain Athel... | 10:50:10h | 7.84 | M45 | 118th M · 20th M45 |
| 134 | *Cournonsec | 10:50:19h | 7.84 | M40 | 119th M · 36th M40 |
| 135 | Run4Fun | 10:50:23h | 7.84 | M23 | 120th M · 28th M23 |
| 136 | Esprit Sport | 10:50:29h | 7.84 | W40 | 16th F · 2nd W40 |
| 137 | les Eperviers - Daher | 10:51:14h | 7.83 | M45 | 121st M · 21st M45 |
| 138 | les Zinzins des Coteau... | 10:51:25h | 7.83 | M55 | 122nd M · 1st M55 |
| 139 | *Le Castera | 10:52:15h | 7.82 | M23 | 123rd M · 29th M23 |
| 140 | les Barjos des Cotos | 10:55:10h | 7.78 | M55 | 124th M · 2nd M55 |
| 141 | *Soustons | 10:56:02h | 7.77 | M40 | 125th M · 37th M40 |
| 142 | *Les Sables-D'Olonne | 10:56:36h | 7.77 | M50 | 126th M · 9th M50 |
| 143 | 10:57:30h | 7.76 | M35 | 127th M · 26th M35 | |
| 144 | *Roquesérière | 10:57:31h | 7.76 | M45 | 128th M · 22nd M45 |
| 145 | Bouliac Sports Plaisirs | 10:59:40h | 7.73 | W45 | 17th F · 3rd W45 |
| 145 | Bouliac Sports Plaisirs | 10:59:40h | 7.73 | M23 | 129th M · 30th M23 |
| 147 | Mountera ETO | 10:59:51h | 7.73 | M45 | 130th M · 23rd M45 |
| 148 | AC Varades | 11:01:17h | 7.71 | M35 | 131st M · 27th M35 |
| 149 | Bouliac Sports Plaisirs | 11:03:41h | 7.68 | M35 | 132nd M · 28th M35 |
| 150 | 11:04:14h | 7.68 | M35 | 133rd M · 29th M35 |
- 101*Léoville90th M · 21st M35Time10:17:11hPace8.26Cat.M35
- 10291st M · 14th M45Time10:17:17hPace8.26Cat.M45
- 102AC Varades91st M · 28th M40Time10:17:17hPace8.26Cat.M40
- 10493rd M · 5th M50Time10:17:38hPace8.26Cat.M50
- 105*Herrère94th M · 23rd M23Time10:18:17hPace8.25Cat.M23
- 106*Biarritz95th M · 15th M45Time10:18:34hPace8.24Cat.M45
- 10796th M · 22nd M35Time10:23:06hPace8.19Cat.M35
- 10897th M · 23rd M35Time10:23:07hPace8.19Cat.M35
- 10897th M · 16th M45Time10:23:07hPace8.19Cat.M45
- 110*Venerque99th M · 29th M40Time10:24:33hPace8.17Cat.M40
- 111*Touvois100th M · 6th M50Time10:24:43hPace8.16Cat.M50
- 11212th F · 3rd W35Time10:25:09hPace8.16Cat.W35
- 113101st M · 30th M40Time10:25:11hPace8.16Cat.M40
- 114Arbus Running102nd M · 31st M40Time10:25:37hPace8.15Cat.M40
- 115A2 Running103rd M · 24th M23Time10:25:59hPace8.15Cat.M23
- 116104th M · 24th M35Time10:30:15hPace8.09Cat.M35
- 117*Mondavezan13th F · 6th W23Time10:30:47hPace8.09Cat.W23
- 11814th F · 7th W23Time10:33:51hPace8.05Cat.W23
- 119*Chaumes-En-Retz105th M · 25th M23Time10:34:12hPace8.04Cat.M23
- 120106th M · 26th M23Time10:34:22hPace8.04Cat.M23
- 121Asd81107th M · 27th M23Time10:36:17hPace8.02Cat.M23
- 122Courir À Torcé108th M · 7th M50Time10:36:30hPace8.01Cat.M50
- 123*Lacanau109th M · 17th M45Time10:38:59hPace7.98Cat.M45
- 124les Tritons du Grand C...110th M · 32nd M40Time10:39:10hPace7.98Cat.M40
- 12515th F · 1st W55Time10:39:13hPace7.98Cat.W55
- 126*Lherm111th M · 33rd M40Time10:40:05hPace7.97Cat.M40
- 127Union Club Athlétique112th M · 18th M45Time10:41:07hPace7.96Cat.M45
- 128JNM Narbonne113th M · 8th M50Time10:44:20hPace7.92Cat.M50
- 129Endurodez114th M · 19th M45Time10:44:22hPace7.92Cat.M45
- 130115th M · 25th M35Time10:44:52hPace7.91Cat.M35
- 131Courir A Ste Luce116th M · 34th M40Time10:48:25hPace7.87Cat.M40
- 132Courir À Sainte Luce117th M · 35th M40Time10:48:26hPace7.87Cat.M40
- 133Stade Toulousain Athel...118th M · 20th M45Time10:50:10hPace7.84Cat.M45
- 134*Cournonsec119th M · 36th M40Time10:50:19hPace7.84Cat.M40
- 135Run4Fun120th M · 28th M23Time10:50:23hPace7.84Cat.M23
- 136Esprit Sport16th F · 2nd W40Time10:50:29hPace7.84Cat.W40
- 137les Eperviers - Daher121st M · 21st M45Time10:51:14hPace7.83Cat.M45
- 138les Zinzins des Coteau...122nd M · 1st M55Time10:51:25hPace7.83Cat.M55
- 139*Le Castera123rd M · 29th M23Time10:52:15hPace7.82Cat.M23
- 140les Barjos des Cotos124th M · 2nd M55Time10:55:10hPace7.78Cat.M55
- 141*Soustons125th M · 37th M40Time10:56:02hPace7.77Cat.M40
- 142*Les Sables-D'Olonne126th M · 9th M50Time10:56:36hPace7.77Cat.M50
- 143127th M · 26th M35Time10:57:30hPace7.76Cat.M35
- 144*Roquesérière128th M · 22nd M45Time10:57:31hPace7.76Cat.M45
- 145Bouliac Sports Plaisirs17th F · 3rd W45Time10:59:40hPace7.73Cat.W45
- 145Bouliac Sports Plaisirs129th M · 30th M23Time10:59:40hPace7.73Cat.M23
- 147Mountera ETO130th M · 23rd M45Time10:59:51hPace7.73Cat.M45
- 148AC Varades131st M · 27th M35Time11:01:17hPace7.71Cat.M35
- 149Bouliac Sports Plaisirs132nd M · 28th M35Time11:03:41hPace7.68Cat.M35
- 150133rd M · 29th M35Time11:04:14hPace7.68Cat.M35
Showing ranks 101–150 of 273